sensor_id;sensor_type;location;lat;lon;timestamp;temperature;humidity
18662;DHT22;61528;49.456;11.098;2023-11-19T00:01:32;5.80;99.90
18662;DHT22;61528;49.456;11.098;2023-11-19T00:03:58;5.90;99.90
18662;DHT22;61528;49.456;11.098;2023-11-19T00:06:24;5.90;99.90
18662;DHT22;61528;49.456;11.098;2023-11-19T00:08:51;5.90;99.90
18662;DHT22;61528;49.456;11.098;2023-11-19T00:11:17;5.90;99.90
18662;DHT22;61528;49.456;11.098;2023-11-19T00:13:43;5.90;99.90
18662;DHT22;61528;49.456;11.098;2023-11-19T00:16:09;5.90;99.90
18662;DHT22;61528;49.456;11.098;2023-11-19T00:18:35;5.90;99.90
18662;DHT22;61528;49.456;11.098;2023-11-19T00:21:05;5.80;99.90
18662;DHT22;61528;49.456;11.098;2023-11-19T00:23:31;5.80;99.90
18662;DHT22;61528;49.456;11.098;2023-11-19T00:25:58;5.80;99.90
18662;DHT22;61528;49.456;11.098;2023-11-19T00:28:24;5.90;99.90
18662;DHT22;61528;49.456;11.098;2023-11-19T00:30:49;5.90;99.90
18662;DHT22;61528;49.456;11.098;2023-11-19T00:33:15;5.90;99.90
18662;DHT22;61528;49.456;11.098;2023-11-19T00:35:42;5.90;99.90
18662;DHT22;61528;49.456;11.098;2023-11-19T00:38:09;5.90;99.90
18662;DHT22;61528;49.456;11.098;2023-11-19T00:40:35;5.90;99.90
18662;DHT22;61528;49.456;11.098;2023-11-19T00:43:01;5.90;99.90
18662;DHT22;61528;49.456;11.098;2023-11-19T00:45:27;6.00;99.90
18662;DHT22;61528;49.456;11.098;2023-11-19T00:47:53;6.00;99.90
18662;DHT22;61528;49.456;11.098;2023-11-19T00:50:19;5.90;99.90
18662;DHT22;61528;49.456;11.098;2023-11-19T00:52:45;6.00;99.90
18662;DHT22;61528;49.456;11.098;2023-11-19T00:55:12;6.00;99.90
18662;DHT22;61528;49.456;11.098;2023-11-19T00:57:38;6.00;99.90
18662;DHT22;61528;49.456;11.098;2023-11-19T01:00:06;6.10;99.90
18662;DHT22;61528;49.456;11.098;2023-11-19T01:02:47;5.90;99.90
18662;DHT22;61528;49.456;11.098;2023-11-19T01:05:15;6.00;99.90
18662;DHT22;61528;49.456;11.098;2023-11-19T01:07:41;6.00;99.90
18662;DHT22;61528;49.456;11.098;2023-11-19T01:10:08;6.10;99.90
18662;DHT22;61528;49.456;11.098;2023-11-19T01:12:35;6.10;99.90
18662;DHT22;61528;49.456;11.098;2023-11-19T01:15:01;6.10;99.90
18662;DHT22;61528;49.456;11.098;2023-11-19T01:17:27;6.10;99.90
18662;DHT22;61528;49.456;11.098;2023-11-19T01:19:53;6.10;99.90
18662;DHT22;61528;49.456;11.098;2023-11-19T01:22:19;6.10;99.90
18662;DHT22;61528;49.456;11.098;2023-11-19T01:24:45;6.10;99.90
18662;DHT22;61528;49.456;11.098;2023-11-19T01:27:11;6.10;99.90
18662;DHT22;61528;49.456;11.098;2023-11-19T01:29:36;6.10;99.90
18662;DHT22;61528;49.456;11.098;2023-11-19T01:32:04;6.10;99.90
18662;DHT22;61528;49.456;11.098;2023-11-19T01:34:30;6.10;99.90
18662;DHT22;61528;49.456;11.098;2023-11-19T01:36:56;6.20;99.90
18662;DHT22;61528;49.456;11.098;2023-11-19T01:39:23;6.10;99.90
18662;DHT22;61528;49.456;11.098;2023-11-19T01:41:49;6.10;99.90
18662;DHT22;61528;49.456;11.098;2023-11-19T01:44:15;6.20;99.90
18662;DHT22;61528;49.456;11.098;2023-11-19T01:46:44;6.20;99.90
18662;DHT22;61528;49.456;11.098;2023-11-19T01:49:15;6.20;99.90
18662;DHT22;61528;49.456;11.098;2023-11-19T01:51:41;6.20;99.90
18662;DHT22;61528;49.456;11.098;2023-11-19T01:54:08;6.20;99.90
18662;DHT22;61528;49.456;11.098;2023-11-19T01:56:35;6.20;99.90
18662;DHT22;61528;49.456;11.098;2023-11-19T01:59:02;6.20;99.90
18662;DHT22;61528;49.456;11.098;2023-11-19T02:01:29;6.20;99.90
18662;DHT22;61528;49.456;11.098;2023-11-19T02:03:55;6.20;99.90
18662;DHT22;61528;49.456;11.098;2023-11-19T02:06:22;6.20;99.90
18662;DHT22;61528;49.456;11.098;2023-11-19T02:08:49;6.20;99.90
18662;DHT22;61528;49.456;11.098;2023-11-19T02:11:15;6.20;99.90
18662;DHT22;61528;49.456;11.098;2023-11-19T02:13:41;6.20;99.90
18662;DHT22;61528;49.456;11.098;2023-11-19T02:16:09;6.20;99.90
18662;DHT22;61528;49.456;11.098;2023-11-19T02:18:37;6.20;99.90
18662;DHT22;61528;49.456;11.098;2023-11-19T02:21:03;6.20;99.90
18662;DHT22;61528;49.456;11.098;2023-11-19T02:23:31;6.20;99.90
18662;DHT22;61528;49.456;11.098;2023-11-19T02:26:18;6.20;99.90
18662;DHT22;61528;49.456;11.098;2023-11-19T02:28:45;6.20;99.90
18662;DHT22;61528;49.456;11.098;2023-11-19T02:31:12;6.20;99.90
18662;DHT22;61528;49.456;11.098;2023-11-19T02:33:38;6.20;99.90
18662;DHT22;61528;49.456;11.098;2023-11-19T02:36:05;6.20;99.90
18662;DHT22;61528;49.456;11.098;2023-11-19T02:38:33;6.30;99.90
18662;DHT22;61528;49.456;11.098;2023-11-19T02:41:04;6.30;99.90
18662;DHT22;61528;49.456;11.098;2023-11-19T02:43:34;6.30;99.90
18662;DHT22;61528;49.456;11.098;2023-11-19T02:46:04;6.30;99.90
18662;DHT22;61528;49.456;11.098;2023-11-19T02:48:35;6.30;99.90
18662;DHT22;61528;49.456;11.098;2023-11-19T02:51:04;6.30;99.90
18662;DHT22;61528;49.456;11.098;2023-11-19T02:53:31;6.40;99.90
18662;DHT22;61528;49.456;11.098;2023-11-19T03:01:00;6.40;99.90
18662;DHT22;61528;49.456;11.098;2023-11-19T03:06:06;6.50;99.90
18662;DHT22;61528;49.456;11.098;2023-11-19T03:08:35;6.50;99.90
18662;DHT22;61528;49.456;11.098;2023-11-19T03:11:01;6.50;99.90
18662;DHT22;61528;49.456;11.098;2023-11-19T03:13:28;6.50;99.90
18662;DHT22;61528;49.456;11.098;2023-11-19T03:15:54;6.60;99.90
18662;DHT22;61528;49.456;11.098;2023-11-19T03:18:20;6.60;99.90
18662;DHT22;61528;49.456;11.098;2023-11-19T03:20:46;6.50;99.90
18662;DHT22;61528;49.456;11.098;2023-11-19T03:23:12;6.50;99.90
18662;DHT22;61528;49.456;11.098;2023-11-19T03:25:39;6.50;99.90
18662;DHT22;61528;49.456;11.098;2023-11-19T03:30:32;6.50;99.90
18662;DHT22;61528;49.456;11.098;2023-11-19T03:32:59;6.50;99.90
18662;DHT22;61528;49.456;11.098;2023-11-19T03:35:28;6.50;99.90
18662;DHT22;61528;49.456;11.098;2023-11-19T03:37:54;6.50;99.90
18662;DHT22;61528;49.456;11.098;2023-11-19T03:40:21;6.50;99.90
18662;DHT22;61528;49.456;11.098;2023-11-19T03:42:48;6.60;99.90
18662;DHT22;61528;49.456;11.098;2023-11-19T03:45:14;6.60;99.90
18662;DHT22;61528;49.456;11.098;2023-11-19T03:47:41;6.60;99.90
18662;DHT22;61528;49.456;11.098;2023-11-19T03:50:08;6.60;99.90
18662;DHT22;61528;49.456;11.098;2023-11-19T03:52:35;6.60;99.90
18662;DHT22;61528;49.456;11.098;2023-11-19T03:55:02;6.60;99.90
18662;DHT22;61528;49.456;11.098;2023-11-19T03:57:31;6.60;99.90
18662;DHT22;61528;49.456;11.098;2023-11-19T03:59:57;6.60;99.90
18662;DHT22;61528;49.456;11.098;2023-11-19T04:02:24;6.60;99.90
18662;DHT22;61528;49.456;11.098;2023-11-19T04:04:54;6.60;99.90
18662;DHT22;61528;49.456;11.098;2023-11-19T04:07:20;6.60;99.90
18662;DHT22;61528;49.456;11.098;2023-11-19T04:09:47;6.60;99.90
18662;DHT22;61528;49.456;11.098;2023-11-19T04:14:39;6.60;99.90
18662;DHT22;61528;49.456;11.098;2023-11-19T04:17:06;6.70;99.90
18662;DHT22;61528;49.456;11.098;2023-11-19T04:19:32;6.70;99.90
18662;DHT22;61528;49.456;11.098;2023-11-19T04:21:58;6.70;99.90
18662;DHT22;61528;49.456;11.098;2023-11-19T04:24:24;6.70;99.90
18662;DHT22;61528;49.456;11.098;2023-11-19T04:29:18;6.80;99.90
18662;DHT22;61528;49.456;11.098;2023-11-19T04:31:47;6.80;99.90
18662;DHT22;61528;49.456;11.098;2023-11-19T04:34:13;6.80;99.90
18662;DHT22;61528;49.456;11.098;2023-11-19T04:36:39;6.80;99.90
18662;DHT22;61528;49.456;11.098;2023-11-19T04:39:05;6.90;99.90
18662;DHT22;61528;49.456;11.098;2023-11-19T04:56:39;7.00;99.90
18662;DHT22;61528;49.456;11.098;2023-11-19T04:59:06;7.00;99.90
18662;DHT22;61528;49.456;11.098;2023-11-19T05:01:33;7.00;99.90
18662;DHT22;61528;49.456;11.098;2023-11-19T05:03:59;7.00;99.90
18662;DHT22;61528;49.456;11.098;2023-11-19T05:06:29;7.10;99.90
18662;DHT22;61528;49.456;11.098;2023-11-19T05:08:56;7.00;99.90
18662;DHT22;61528;49.456;11.098;2023-11-19T05:11:22;7.10;99.90
18662;DHT22;61528;49.456;11.098;2023-11-19T05:13:49;7.10;99.90
18662;DHT22;61528;49.456;11.098;2023-11-19T05:16:16;7.10;99.90
18662;DHT22;61528;49.456;11.098;2023-11-19T05:18:43;7.10;99.90
18662;DHT22;61528;49.456;11.098;2023-11-19T05:21:10;7.20;99.90
18662;DHT22;61528;49.456;11.098;2023-11-19T05:23:36;7.20;99.90
18662;DHT22;61528;49.456;11.098;2023-11-19T05:26:02;7.20;99.90
18662;DHT22;61528;49.456;11.098;2023-11-19T05:28:28;7.20;99.90
18662;DHT22;61528;49.456;11.098;2023-11-19T05:30:54;7.20;99.90
18662;DHT22;61528;49.456;11.098;2023-11-19T05:33:21;7.20;99.90
18662;DHT22;61528;49.456;11.098;2023-11-19T05:35:48;7.30;99.90
18662;DHT22;61528;49.456;11.098;2023-11-19T05:38:13;7.20;99.90
18662;DHT22;61528;49.456;11.098;2023-11-19T05:40:41;7.30;99.90
18662;DHT22;61528;49.456;11.098;2023-11-19T05:43:07;7.30;99.90
18662;DHT22;61528;49.456;11.098;2023-11-19T05:45:33;7.30;99.90
18662;DHT22;61528;49.456;11.098;2023-11-19T05:48:00;7.40;99.90
18662;DHT22;61528;49.456;11.098;2023-11-19T05:50:26;7.40;99.90
18662;DHT22;61528;49.456;11.098;2023-11-19T05:52:52;7.40;99.90
18662;DHT22;61528;49.456;11.098;2023-11-19T05:55:19;7.40;99.90
18662;DHT22;61528;49.456;11.098;2023-11-19T05:57:45;7.40;99.90
18662;DHT22;61528;49.456;11.098;2023-11-19T06:19:45;7.70;99.90
18662;DHT22;61528;49.456;11.098;2023-11-19T06:22:12;7.70;99.90
18662;DHT22;61528;49.456;11.098;2023-11-19T06:27:04;7.70;99.90
18662;DHT22;61528;49.456;11.098;2023-11-19T06:29:30;7.70;99.90
18662;DHT22;61528;49.456;11.098;2023-11-19T06:49:06;7.90;99.90
18662;DHT22;61528;49.456;11.098;2023-11-19T06:54:01;7.90;99.90
18662;DHT22;61528;49.456;11.098;2023-11-19T06:56:27;7.90;99.90
18662;DHT22;61528;49.456;11.098;2023-11-19T07:01:20;8.00;99.90
18662;DHT22;61528;49.456;11.098;2023-11-19T07:38:02;8.70;99.90
18662;DHT22;61528;49.456;11.098;2023-11-19T07:40:28;8.70;99.90
18662;DHT22;61528;49.456;11.098;2023-11-19T07:42:54;8.70;99.90
18662;DHT22;61528;49.456;11.098;2023-11-19T07:45:20;8.70;99.90
18662;DHT22;61528;49.456;11.098;2023-11-19T07:47:46;8.70;99.90
18662;DHT22;61528;49.456;11.098;2023-11-19T07:50:13;8.70;99.90
18662;DHT22;61528;49.456;11.098;2023-11-19T07:52:42;8.70;99.90
18662;DHT22;61528;49.456;11.098;2023-11-19T07:55:08;8.70;99.90
18662;DHT22;61528;49.456;11.098;2023-11-19T07:57:34;8.70;99.90
18662;DHT22;61528;49.456;11.098;2023-11-19T08:00:00;8.80;99.90
18662;DHT22;61528;49.456;11.098;2023-11-19T08:02:27;8.80;99.90
18662;DHT22;61528;49.456;11.098;2023-11-19T08:04:53;8.80;99.90
